createdAt,value
2023-05-09T00:00:43.375Z,33.77
2023-05-09T00:01:43.352Z,33.88
2023-05-09T00:02:43.470Z,34.24
2023-05-09T00:03:43.317Z,35.49
2023-05-09T00:04:43.379Z,33.84
2023-05-09T00:05:43.297Z,34.33
2023-05-09T00:06:43.400Z,35.08
2023-05-09T00:07:43.355Z,33.42
2023-05-09T00:08:43.365Z,33.63
2023-05-09T00:09:43.365Z,34.62
2023-05-09T00:10:43.374Z,34.05
2023-05-09T00:11:43.388Z,33.54
2023-05-09T00:12:43.393Z,32.66
2023-05-09T00:13:43.449Z,34.05
2023-05-09T00:14:43.416Z,34.43
2023-05-09T00:15:43.432Z,33.30
2023-05-09T00:16:43.481Z,32.93
2023-05-09T00:17:43.465Z,32.97
2023-05-09T00:18:43.460Z,34.35
2023-05-09T00:19:43.485Z,34.53
2023-05-09T00:20:43.459Z,33.06
2023-05-09T00:21:43.504Z,34.37
2023-05-09T00:22:43.587Z,34.58
2023-05-09T00:23:43.514Z,34.51
2023-05-09T00:24:43.533Z,34.76
2023-05-09T00:25:43.528Z,34.71
2023-05-09T00:26:43.555Z,33.80
2023-05-09T00:27:43.601Z,34.90
2023-05-09T00:28:43.562Z,33.45
2023-05-09T00:29:43.599Z,35.25
2023-05-09T00:30:44.240Z,33.73
2023-05-09T00:31:43.674Z,34.36
2023-05-09T00:32:43.689Z,33.56
2023-05-09T00:33:43.642Z,33.74
2023-05-09T00:34:43.697Z,35.27
2023-05-09T00:35:43.691Z,34.24
2023-05-09T00:36:43.698Z,34.66
2023-05-09T00:37:43.690Z,33.04
2023-05-09T00:38:43.784Z,32.57
2023-05-09T00:39:43.733Z,33.87
2023-05-09T00:40:43.732Z,33.26
2023-05-09T00:41:43.790Z,34.02
2023-05-09T00:42:43.795Z,33.99
2023-05-09T00:43:43.756Z,33.58
2023-05-09T00:44:43.785Z,33.36
2023-05-09T00:45:43.839Z,33.56
2023-05-09T00:46:43.823Z,33.16
2023-05-09T00:47:43.871Z,32.53
2023-05-09T00:48:43.819Z,33.42
2023-05-09T00:49:43.836Z,32.30
2023-05-09T00:50:43.844Z,32.82
2023-05-09T00:51:43.861Z,32.32
2023-05-09T00:52:43.915Z,33.59
2023-05-09T00:53:43.884Z,34.16
2023-05-09T00:54:44.003Z,33.41
2023-05-09T00:55:43.945Z,33.84
2023-05-09T00:56:43.937Z,34.63
2023-05-09T00:57:43.944Z,32.44
2023-05-09T00:58:43.991Z,32.94
2023-05-09T00:59:43.968Z,32.33
2023-05-09T01:00:44.013Z,33.54
2023-05-09T01:01:44.083Z,33.02
2023-05-09T01:02:44.078Z,31.76
2023-05-09T01:03:44.134Z,33.49
2023-05-09T01:04:44.024Z,32.82
2023-05-09T01:05:44.064Z,32.63
2023-05-09T01:06:44.089Z,32.29
2023-05-09T01:07:44.101Z,32.41
2023-05-09T01:08:44.099Z,33.49
2023-05-09T01:09:44.169Z,34.45
2023-05-09T01:10:44.221Z,32.65
2023-05-09T01:11:44.334Z,32.84
2023-05-09T01:12:44.186Z,32.68
2023-05-09T01:13:44.172Z,31.61
2023-05-09T01:14:44.154Z,32.03
2023-05-09T01:15:44.168Z,31.39
2023-05-09T01:16:44.215Z,32.88
2023-05-09T01:17:44.260Z,34.60
2023-05-09T01:18:44.239Z,34.20
2023-05-09T01:19:44.246Z,33.22
2023-05-09T01:20:44.239Z,33.73
2023-05-09T01:21:44.272Z,34.23
2023-05-09T01:22:44.380Z,34.42
2023-05-09T01:23:44.360Z,32.70
2023-05-09T01:24:44.293Z,34.86
2023-05-09T01:25:44.325Z,34.38
2023-05-09T01:26:44.462Z,32.71
2023-05-09T01:27:44.339Z,32.99
2023-05-09T01:28:44.315Z,32.36
2023-05-09T01:29:44.370Z,32.79
2023-05-09T01:30:44.385Z,33.53
2023-05-09T01:31:44.462Z,35.04
2023-05-09T01:32:44.447Z,33.30
2023-05-09T01:33:44.400Z,32.94
2023-05-09T01:34:44.422Z,33.71
2023-05-09T01:35:44.403Z,33.08
2023-05-09T01:36:44.449Z,32.81
2023-05-09T01:37:44.434Z,31.83
2023-05-09T01:38:44.454Z,32.55
2023-05-09T01:39:44.433Z,32.34
2023-05-09T01:40:44.481Z,32.65
2023-05-09T01:41:44.754Z,33.26
2023-05-09T01:42:44.603Z,33.29
2023-05-09T01:43:44.606Z,32.35
2023-05-09T01:44:44.529Z,31.78
2023-05-09T01:45:44.576Z,34.02
2023-05-09T01:46:44.835Z,32.16
2023-05-09T01:47:44.610Z,31.42
2023-05-09T01:48:44.607Z,30.87
2023-05-09T01:49:44.611Z,30.89
2023-05-09T01:50:44.656Z,32.06
2023-05-09T01:51:44.614Z,32.18
2023-05-09T01:52:44.621Z,31.22
2023-05-09T01:53:44.671Z,32.96
2023-05-09T01:54:44.673Z,32.20
2023-05-09T01:55:44.693Z,32.38
2023-05-09T01:56:44.763Z,33.33
2023-05-09T01:57:44.696Z,32.14
2023-05-09T01:58:44.847Z,32.91
2023-05-09T01:59:44.808Z,34.14
2023-05-09T02:00:44.818Z,32.49
2023-05-09T02:01:45.271Z,31.51
2023-05-09T02:02:44.868Z,31.61
2023-05-09T02:03:44.808Z,33.42
2023-05-09T02:04:44.854Z,31.09
2023-05-09T02:05:44.823Z,32.39
2023-05-09T02:06:45.268Z,33.34
2023-05-09T02:07:44.800Z,32.69
2023-05-09T02:08:44.846Z,32.04
2023-05-09T02:09:44.859Z,32.60
2023-05-09T02:10:44.883Z,32.21
2023-05-09T02:11:44.882Z,32.03
2023-05-09T02:12:44.932Z,32.19
2023-05-09T02:13:44.901Z,31.17
2023-05-09T02:14:45.000Z,33.10
2023-05-09T02:15:44.933Z,32.14
2023-05-09T02:16:44.979Z,31.24
2023-05-09T02:17:45.007Z,31.81
2023-05-09T02:18:44.967Z,32.61
2023-05-09T02:19:44.995Z,30.77
2023-05-09T02:20:45.027Z,30.78
2023-05-09T02:21:45.276Z,30.89
2023-05-09T02:22:45.016Z,31.37
2023-05-09T02:23:45.023Z,30.56
2023-05-09T02:24:45.064Z,31.03
2023-05-09T02:25:45.078Z,30.84
2023-05-09T02:26:45.264Z,31.37
2023-05-09T02:27:45.090Z,29.26
2023-05-09T02:28:45.099Z,31.41
2023-05-09T02:29:45.086Z,30.23
2023-05-09T02:30:45.217Z,32.10
2023-05-09T02:31:45.169Z,29.24
2023-05-09T02:32:45.203Z,32.25
2023-05-09T02:33:45.132Z,30.70
2023-05-09T02:34:45.175Z,30.88
2023-05-09T02:35:45.159Z,32.33
2023-05-09T02:36:45.294Z,31.10
2023-05-09T02:37:45.234Z,30.50
2023-05-09T02:38:45.187Z,30.41
2023-05-09T02:39:45.215Z,30.61
2023-05-09T02:40:45.202Z,29.25
2023-05-09T02:41:45.237Z,30.87
2023-05-09T02:42:45.275Z,29.91
2023-05-09T02:43:45.253Z,30.15
2023-05-09T02:44:45.285Z,30.54
2023-05-09T02:45:45.343Z,30.05
2023-05-09T02:46:45.401Z,32.38
2023-05-09T02:47:45.817Z,30.40
2023-05-09T02:48:45.329Z,29.13
2023-05-09T02:49:45.345Z,29.89
2023-05-09T02:50:45.358Z,30.87
2023-05-09T02:51:45.396Z,31.39
2023-05-09T02:52:45.406Z,30.10
2023-05-09T02:53:45.429Z,31.42
2023-05-09T02:54:45.450Z,30.25
2023-05-09T02:55:45.409Z,28.97
2023-05-09T02:56:45.456Z,28.24
2023-05-09T02:57:45.470Z,29.38
2023-05-09T02:58:45.489Z,30.34
2023-05-09T02:59:45.454Z,28.99
2023-05-09T03:00:45.523Z,31.07
2023-05-09T03:01:45.607Z,29.02
2023-05-09T03:02:46.038Z,29.31
2023-05-09T03:03:45.694Z,31.39
2023-05-09T03:04:45.556Z,31.58
2023-05-09T03:05:45.709Z,31.96
2023-05-09T03:06:45.569Z,29.47
2023-05-09T03:07:45.574Z,28.65
2023-05-09T03:08:45.595Z,29.60
2023-05-09T03:09:45.621Z,29.47
2023-05-09T03:10:45.613Z,29.68
2023-05-09T03:11:45.616Z,28.61
2023-05-09T03:12:45.707Z,28.63
2023-05-09T03:13:45.643Z,28.63
2023-05-09T03:14:45.711Z,30.03
2023-05-09T03:15:45.713Z,30.11
2023-05-09T03:16:45.705Z,30.72
2023-05-09T03:17:45.746Z,30.03
2023-05-09T03:18:45.838Z,29.16
2023-05-09T03:19:45.770Z,30.13
2023-05-09T03:20:45.800Z,28.96
2023-05-09T03:21:45.773Z,28.74
2023-05-09T03:22:46.322Z,29.68
2023-05-09T03:23:45.811Z,28.04
2023-05-09T03:24:45.824Z,29.76
2023-05-09T03:25:45.841Z,28.64
2023-05-09T03:26:45.846Z,30.12
2023-05-09T03:27:45.885Z,26.84
2023-05-09T03:28:45.887Z,29.58
2023-05-09T03:29:45.938Z,29.48
2023-05-09T03:30:45.951Z,28.39
2023-05-09T03:31:45.995Z,28.92
2023-05-09T03:32:46.027Z,30.96
2023-05-09T03:33:45.970Z,31.80
2023-05-09T03:34:46.070Z,28.95
2023-05-09T03:35:46.015Z,28.14
2023-05-09T03:36:46.044Z,28.99
2023-05-09T03:37:46.067Z,29.70
2023-05-09T03:38:46.077Z,29.33
2023-05-09T03:39:46.085Z,29.94
2023-05-09T03:40:46.098Z,28.43
2023-05-09T03:41:46.126Z,30.07
2023-05-09T03:42:46.312Z,29.62
2023-05-09T03:43:46.200Z,27.84
2023-05-09T03:44:46.221Z,30.62
2023-05-09T03:45:46.207Z,28.34
2023-05-09T03:46:46.293Z,29.50
2023-05-09T03:47:46.325Z,29.65
2023-05-09T03:48:46.254Z,28.75
2023-05-09T03:49:46.253Z,27.57
2023-05-09T03:50:46.375Z,29.66
2023-05-09T03:51:46.318Z,28.54
2023-05-09T03:52:46.370Z,27.55
2023-05-09T03:53:46.320Z,27.85
2023-05-09T03:54:46.330Z,28.32
2023-05-09T03:55:46.324Z,28.10
2023-05-09T03:56:46.359Z,27.46
2023-05-09T03:57:46.827Z,29.13
2023-05-09T03:58:46.425Z,29.58
2023-05-09T03:59:46.436Z,28.26
2023-05-09T04:00:46.419Z,27.62
2023-05-09T04:01:46.439Z,28.40
2023-05-09T04:02:46.456Z,29.29
2023-05-09T04:03:46.486Z,25.84
2023-05-09T04:04:46.488Z,29.27
2023-05-09T04:05:46.503Z,27.93
2023-05-09T04:06:46.609Z,30.60
2023-05-09T04:07:46.827Z,27.16
2023-05-09T04:08:46.522Z,27.24
2023-05-09T04:09:46.593Z,27.69
2023-05-09T04:10:47.319Z,29.72
2023-05-09T04:11:46.622Z,28.73
2023-05-09T04:12:46.647Z,30.17
2023-05-09T04:13:46.664Z,29.85
2023-05-09T04:14:48.784Z,28.70
2023-05-09T04:15:46.682Z,27.56
2023-05-09T04:16:46.744Z,29.47
2023-05-09T04:17:46.830Z,28.57
2023-05-09T04:18:46.733Z,30.71
2023-05-09T04:19:46.785Z,29.87
2023-05-09T04:20:46.780Z,30.56
2023-05-09T04:21:46.816Z,30.18
2023-05-09T04:22:47.115Z,27.75
2023-05-09T04:23:46.858Z,26.82
2023-05-09T04:24:46.833Z,27.97
2023-05-09T04:25:46.905Z,28.43
2023-05-09T04:26:46.924Z,28.16
2023-05-09T04:27:46.889Z,28.43
2023-05-09T04:28:46.905Z,27.13
2023-05-09T04:29:46.963Z,28.42
2023-05-09T04:30:46.989Z,29.20
2023-05-09T04:31:47.111Z,29.70
2023-05-09T04:32:47.130Z,28.95
2023-05-09T04:33:47.086Z,27.40
2023-05-09T04:34:47.078Z,27.57
2023-05-09T04:35:47.091Z,27.94
2023-05-09T04:36:47.138Z,27.35
2023-05-09T04:37:47.359Z,29.09
2023-05-09T04:38:47.261Z,28.06
2023-05-09T04:39:47.169Z,27.77
2023-05-09T04:40:47.218Z,28.90
2023-05-09T04:41:47.232Z,27.69
2023-05-09T04:42:47.273Z,27.04
2023-05-09T04:43:47.283Z,26.20
2023-05-09T04:44:47.288Z,29.43
2023-05-09T04:45:47.306Z,26.47
2023-05-09T04:46:47.342Z,28.49
2023-05-09T04:47:47.914Z,26.94
2023-05-09T04:48:47.336Z,26.26
2023-05-09T04:49:47.413Z,27.30
2023-05-09T04:50:47.415Z,29.08
2023-05-09T04:51:47.490Z,27.21
2023-05-09T04:52:47.504Z,25.37
2023-05-09T04:53:47.478Z,25.89
2023-05-09T04:54:47.587Z,27.84
2023-05-09T04:55:47.604Z,26.74
2023-05-09T04:56:50.045Z,27.74
2023-05-09T04:57:47.583Z,28.69
2023-05-09T04:58:47.536Z,27.99
2023-05-09T04:59:47.572Z,26.49
2023-05-09T05:00:47.572Z,27.95
2023-05-09T05:01:47.600Z,26.08
2023-05-09T05:02:47.551Z,27.71
2023-05-09T05:03:47.534Z,26.29
2023-05-09T05:04:47.531Z,27.75
2023-05-09T05:05:47.561Z,26.39
2023-05-09T05:06:47.493Z,26.55
2023-05-09T05:07:47.505Z,25.21
2023-05-09T05:08:47.467Z,28.59
2023-05-09T05:09:47.528Z,27.87
2023-05-09T05:10:47.545Z,27.32
2023-05-09T05:11:57.805Z,28.43
2023-05-09T05:12:48.518Z,28.71
2023-05-09T05:13:47.480Z,28.84
2023-05-09T05:14:47.417Z,28.82
2023-05-09T05:15:47.479Z,26.54
2023-05-09T05:16:47.392Z,29.10
2023-05-09T05:17:47.448Z,28.45
2023-05-09T05:18:47.427Z,28.35
2023-05-09T05:19:47.392Z,25.61
2023-05-09T05:20:47.409Z,28.36
2023-05-09T05:21:47.456Z,28.00
2023-05-09T05:22:47.399Z,25.00
2023-05-09T05:23:47.349Z,30.64
2023-05-09T05:24:47.372Z,27.09
2023-05-09T05:25:47.418Z,28.19
2023-05-09T05:26:47.478Z,29.32
2023-05-09T05:27:47.367Z,27.35
2023-05-09T05:28:47.342Z,28.49
2023-05-09T05:29:47.314Z,27.88
2023-05-09T05:30:47.311Z,28.24
2023-05-09T05:31:47.456Z,31.86
2023-05-09T05:32:47.387Z,27.14
2023-05-09T05:33:47.366Z,25.34
2023-05-09T05:34:47.372Z,26.87
2023-05-09T05:35:47.425Z,28.09
2023-05-09T05:36:47.507Z,27.61
2023-05-09T05:37:49.018Z,27.27
2023-05-09T05:38:47.502Z,29.61
2023-05-09T05:39:47.501Z,26.86
2023-05-09T05:40:47.549Z,31.51
2023-05-09T05:41:47.585Z,29.58
2023-05-09T05:42:47.948Z,26.67
2023-05-09T05:43:47.664Z,28.29
2023-05-09T05:44:47.676Z,26.96
2023-05-09T05:45:47.721Z,28.87
2023-05-09T05:46:48.711Z,27.73
2023-05-09T05:47:47.769Z,26.53
2023-05-09T05:48:47.693Z,27.58
2023-05-09T05:49:47.743Z,27.24
2023-05-09T05:50:47.794Z,28.16
2023-05-09T05:51:47.792Z,27.20
2023-05-09T05:52:47.821Z,28.65
2023-05-09T05:53:47.825Z,27.67
2023-05-09T05:54:47.854Z,26.67
2023-05-09T05:55:47.885Z,28.46
2023-05-09T05:56:47.928Z,26.34
2023-05-09T05:57:48.347Z,28.28
2023-05-09T05:58:48.025Z,27.30
2023-05-09T05:59:47.978Z,28.32
2023-05-09T06:00:47.988Z,25.00
2023-05-09T06:01:48.041Z,27.84
2023-05-09T06:02:48.428Z,27.29
2023-05-09T06:03:48.173Z,28.39
2023-05-09T06:04:48.085Z,28.39
2023-05-09T06:05:48.051Z,29.30
2023-05-09T06:06:48.061Z,28.19
2023-05-09T06:07:48.071Z,29.40
2023-05-09T06:08:48.079Z,30.77
2023-05-09T06:09:48.062Z,29.06
2023-05-09T06:10:48.126Z,32.70
2023-05-09T06:11:48.125Z,31.70
2023-05-09T06:12:48.106Z,34.76
2023-05-09T06:13:48.108Z,36.49
2023-05-09T06:14:48.176Z,36.08
2023-05-09T06:15:48.087Z,39.01
2023-05-09T06:16:48.146Z,38.55
2023-05-09T06:17:48.115Z,37.28
2023-05-09T06:18:48.074Z,38.64
2023-05-09T06:19:48.846Z,39.18
2023-05-09T06:20:48.083Z,39.45
2023-05-09T06:21:48.091Z,42.93
2023-05-09T06:22:48.151Z,41.49
2023-05-09T06:24:05.955Z,43.34
2023-05-09T06:24:49.131Z,43.51
2023-05-09T06:25:48.113Z,43.80
2023-05-09T06:26:48.123Z,44.79
2023-05-09T06:27:48.082Z,45.74
2023-05-09T06:28:48.108Z,48.77
2023-05-09T06:29:48.146Z,50.96
2023-05-09T06:30:48.170Z,49.07
2023-05-09T06:31:48.156Z,52.42
2023-05-09T06:32:48.179Z,54.03
2023-05-09T06:33:48.377Z,55.04
2023-05-09T06:34:48.205Z,57.51
2023-05-09T06:35:48.234Z,58.72
2023-05-09T06:36:48.260Z,59.42
2023-05-09T06:37:49.037Z,61.43
2023-05-09T06:38:48.961Z,63.59
2023-05-09T06:39:48.427Z,63.79
2023-05-09T06:40:48.487Z,65.07
2023-05-09T06:41:48.536Z,66.24
2023-05-09T06:42:48.544Z,64.26
2023-05-09T06:43:49.863Z,67.14
2023-05-09T06:44:48.651Z,67.88
2023-05-09T06:45:48.635Z,70.06
2023-05-09T06:46:48.703Z,70.80
2023-05-09T06:47:48.730Z,71.87
2023-05-09T06:48:48.735Z,72.17
2023-05-09T06:49:48.802Z,73.90
2023-05-09T06:50:48.799Z,76.53
2023-05-09T06:51:48.845Z,75.59
2023-05-09T06:52:48.920Z,75.90
2023-05-09T06:53:48.948Z,76.30
2023-05-09T06:54:49.033Z,77.34
2023-05-09T06:55:48.984Z,75.57
2023-05-09T06:56:49.021Z,78.83
2023-05-09T06:57:49.022Z,79.83
2023-05-09T06:58:49.030Z,81.11
2023-05-09T06:59:49.072Z,80.76
2023-05-09T07:00:49.104Z,80.21
2023-05-09T07:01:49.223Z,81.57
2023-05-09T07:02:49.269Z,83.20
2023-05-09T07:03:49.148Z,85.25
2023-05-09T07:04:49.223Z,85.58
2023-05-09T07:05:49.209Z,85.53
2023-05-09T07:06:49.278Z,87.05
2023-05-09T07:07:49.289Z,86.89
2023-05-09T07:08:49.263Z,90.48
2023-05-09T07:09:52.832Z,91.36
2023-05-09T07:10:50.273Z,91.57
2023-05-09T07:11:49.254Z,91.67
2023-05-09T07:12:49.287Z,92.82
2023-05-09T07:13:49.362Z,93.92
2023-05-09T07:14:49.269Z,94.73
2023-05-09T07:15:49.261Z,96.85
2023-05-09T07:16:49.251Z,97.20
2023-05-09T07:17:49.263Z,96.03
2023-05-09T07:18:49.467Z,97.00
2023-05-09T07:19:49.202Z,93.23
2023-05-09T07:20:49.183Z,99.16
2023-05-09T07:21:49.171Z,98.34
2023-05-09T07:22:49.237Z,99.21
2023-05-09T07:23:49.190Z,98.60
2023-05-09T07:24:49.184Z,100.63
2023-05-09T07:25:49.184Z,99.68
2023-05-09T07:26:49.170Z,100.88
2023-05-09T07:27:49.165Z,100.13
2023-05-09T07:28:49.427Z,102.56
2023-05-09T07:29:49.181Z,105.22
2023-05-09T07:30:49.169Z,103.71
2023-05-09T07:31:49.207Z,99.59
2023-05-09T07:32:49.149Z,107.27
2023-05-09T07:33:49.094Z,104.53
2023-05-09T07:34:49.180Z,105.57
2023-05-09T07:35:49.121Z,108.03
2023-05-09T07:36:49.079Z,106.31
2023-05-09T07:37:49.128Z,104.43
2023-05-09T07:38:49.063Z,97.99
2023-05-09T07:39:49.081Z,101.87
2023-05-09T07:40:49.074Z,102.65
2023-05-09T07:41:49.074Z,100.97
2023-05-09T07:42:49.052Z,102.28
2023-05-09T07:43:49.036Z,100.93
2023-05-09T07:44:49.021Z,99.42
2023-05-09T07:45:49.084Z,96.43
2023-05-09T07:46:49.041Z,94.19
2023-05-09T07:47:49.072Z,79.15
2023-05-09T07:48:49.051Z,67.38
2023-05-09T07:49:49.008Z,61.51
2023-05-09T07:50:49.061Z,56.97
2023-05-09T07:51:48.960Z,52.12
2023-05-09T07:52:49.863Z,45.62
2023-05-09T07:53:48.943Z,44.80
2023-05-09T07:54:48.969Z,44.31
2023-05-09T07:55:48.965Z,42.93
2023-05-09T07:56:48.983Z,42.18
2023-05-09T07:57:48.992Z,40.26
2023-05-09T07:58:49.059Z,42.11
2023-05-09T07:59:49.059Z,42.00
2023-05-09T08:00:49.078Z,42.99
2023-05-09T08:01:49.134Z,42.57
2023-05-09T08:02:49.213Z,41.20
2023-05-09T08:03:49.508Z,36.17
2023-05-09T08:04:49.265Z,35.09
2023-05-09T08:05:49.193Z,35.46
2023-05-09T08:06:49.365Z,39.39
2023-05-09T08:07:49.262Z,37.01
2023-05-09T08:08:49.302Z,31.81
2023-05-09T08:09:49.331Z,37.63
2023-05-09T08:10:49.409Z,38.71
2023-05-09T08:11:49.347Z,33.88
2023-05-09T08:12:49.409Z,33.70
2023-05-09T08:13:49.922Z,31.30
2023-05-09T08:14:49.390Z,32.97
2023-05-09T08:15:49.464Z,30.35
2023-05-09T08:16:49.482Z,33.10
2023-05-09T08:17:49.564Z,33.80
2023-05-09T08:18:49.915Z,32.88
2023-05-09T08:19:49.538Z,31.22
2023-05-09T08:20:49.553Z,29.15
2023-05-09T08:21:49.628Z,33.80
2023-05-09T08:22:49.766Z,30.65
2023-05-09T08:23:49.630Z,32.56
2023-05-09T08:24:49.668Z,31.36
2023-05-09T08:25:49.673Z,32.22
2023-05-09T08:26:49.680Z,33.85
2023-05-09T08:27:51.009Z,32.76
2023-05-09T08:28:50.393Z,30.47
2023-05-09T08:29:49.903Z,30.44
2023-05-09T08:30:49.945Z,33.74
2023-05-09T08:31:49.988Z,36.24
2023-05-09T08:32:50.022Z,37.20
2023-05-09T08:33:50.028Z,31.05
2023-05-09T08:34:49.965Z,28.95
2023-05-09T08:35:49.981Z,25.91
2023-05-09T08:36:50.040Z,30.45
2023-05-09T08:37:50.039Z,37.60
2023-05-09T08:38:50.496Z,31.49
2023-05-09T08:39:50.098Z,34.43
2023-05-09T08:40:50.116Z,30.05
2023-05-09T08:41:50.139Z,32.06
2023-05-09T08:42:50.145Z,29.89
2023-05-09T08:43:50.181Z,28.99
2023-05-09T08:44:50.186Z,29.42
2023-05-09T08:45:50.205Z,27.94
2023-05-09T08:46:50.308Z,28.49
2023-05-09T08:47:50.297Z,30.87
2023-05-09T08:48:50.381Z,31.11
2023-05-09T08:49:50.333Z,29.45
2023-05-09T08:50:50.336Z,30.71
2023-05-09T08:51:50.330Z,32.30
2023-05-09T08:52:50.389Z,29.20
2023-05-09T08:53:50.423Z,25.22
2023-05-09T08:54:50.537Z,21.71
2023-05-09T08:55:50.434Z,26.20
2023-05-09T08:56:50.469Z,30.74
2023-05-09T08:57:50.512Z,32.69
2023-05-09T08:58:50.525Z,49.14
2023-05-09T08:59:50.556Z,58.66
2023-05-09T09:00:50.575Z,45.54
2023-05-09T09:01:50.684Z,43.80
2023-05-09T09:02:50.700Z,47.75
2023-05-09T09:03:50.923Z,37.69
2023-05-09T09:04:50.783Z,31.89
2023-05-09T09:05:50.789Z,34.94
2023-05-09T09:06:50.857Z,30.65
2023-05-09T09:07:50.865Z,28.71
2023-05-09T09:08:50.952Z,31.34
2023-05-09T09:09:50.913Z,28.98
2023-05-09T09:10:51.049Z,25.45
2023-05-09T09:11:51.018Z,25.12
2023-05-09T09:12:51.078Z,25.34
2023-05-09T09:13:51.059Z,27.15
2023-05-09T09:14:51.102Z,28.37
2023-05-09T09:15:51.108Z,31.15
2023-05-09T09:16:51.241Z,31.79
2023-05-09T09:17:51.186Z,35.09
2023-05-09T09:18:51.426Z,32.99
2023-05-09T09:19:51.254Z,34.40
2023-05-09T09:20:51.290Z,33.03
2023-05-09T09:21:51.278Z,33.94
2023-05-09T09:22:51.263Z,35.53
2023-05-09T09:23:51.264Z,36.11
2023-05-09T09:24:51.334Z,35.44
2023-05-09T09:25:51.302Z,38.09
2023-05-09T09:26:51.381Z,34.06
2023-05-09T09:27:51.310Z,37.15
2023-05-09T09:28:51.295Z,38.26
2023-05-09T09:29:51.409Z,38.02
2023-05-09T09:30:51.319Z,39.16
2023-05-09T09:31:51.334Z,42.40
2023-05-09T09:32:51.348Z,43.76
2023-05-09T09:33:51.299Z,37.57
2023-05-09T09:34:51.452Z,46.14
2023-05-09T09:35:51.361Z,46.11
2023-05-09T09:36:51.404Z,42.16
2023-05-09T09:37:51.371Z,46.65
2023-05-09T09:38:51.367Z,50.63
2023-05-09T09:39:51.397Z,45.14
2023-05-09T09:40:51.430Z,50.69
2023-05-09T09:41:51.531Z,51.71
2023-05-09T09:42:51.549Z,53.77
2023-05-09T09:43:51.615Z,50.31
2023-05-09T09:44:51.925Z,54.21
2023-05-09T09:45:51.697Z,42.95
2023-05-09T09:46:51.582Z,48.49
2023-05-09T09:47:51.639Z,45.26
2023-05-09T09:48:51.601Z,45.57
2023-05-09T09:49:51.940Z,48.82
2023-05-09T09:50:51.609Z,49.48
2023-05-09T09:51:51.606Z,46.53
2023-05-09T09:52:51.604Z,51.86
2023-05-09T09:53:51.687Z,44.12
2023-05-09T09:54:51.942Z,45.32
2023-05-09T09:55:51.697Z,41.40
2023-05-09T09:56:51.769Z,49.14
2023-05-09T09:57:51.806Z,50.18
2023-05-09T09:58:51.953Z,47.59
2023-05-09T09:59:51.919Z,41.30
2023-05-09T10:00:51.944Z,50.73
2023-05-09T10:01:52.049Z,52.05
2023-05-09T10:02:52.148Z,48.44
2023-05-09T10:03:52.102Z,49.77
2023-05-09T10:04:52.104Z,45.61
2023-05-09T10:05:52.096Z,44.43
2023-05-09T10:06:52.105Z,48.05
2023-05-09T10:07:52.103Z,47.55
2023-05-09T10:08:52.111Z,47.32
2023-05-09T10:09:52.118Z,46.95
2023-05-09T10:10:52.145Z,44.29
2023-05-09T10:11:52.113Z,36.24
2023-05-09T10:12:52.124Z,42.94
2023-05-09T10:13:52.121Z,39.40
2023-05-09T10:14:52.513Z,37.73
2023-05-09T10:15:53.981Z,37.93
2023-05-09T10:16:52.238Z,37.20
2023-05-09T10:17:52.282Z,35.77
2023-05-09T10:18:52.250Z,39.71
2023-05-09T10:19:52.433Z,39.82
2023-05-09T10:20:52.285Z,37.54
2023-05-09T10:21:52.274Z,47.84
2023-05-09T10:22:52.311Z,41.27
2023-05-09T10:23:52.438Z,37.55
2023-05-09T10:24:52.947Z,45.29
2023-05-09T10:25:52.534Z,43.68
2023-05-09T10:26:52.556Z,45.63
2023-05-09T10:27:52.633Z,45.00
2023-05-09T10:28:52.676Z,50.37
2023-05-09T10:29:52.744Z,50.29
2023-05-09T10:30:52.902Z,47.25
2023-05-09T10:31:52.944Z,44.67
2023-05-09T10:32:52.981Z,53.48
2023-05-09T10:33:52.994Z,50.12
2023-05-09T10:34:53.017Z,51.82
2023-05-09T10:35:53.103Z,46.02
2023-05-09T10:36:53.136Z,55.81
2023-05-09T10:37:53.156Z,46.33
2023-05-09T10:38:53.249Z,51.96
2023-05-09T10:39:53.323Z,56.35
2023-05-09T10:40:53.366Z,52.19
2023-05-09T10:41:53.393Z,57.53
2023-05-09T10:42:53.495Z,67.75
2023-05-09T10:43:53.553Z,67.67
2023-05-09T10:44:53.947Z,61.62
2023-05-09T10:45:53.620Z,52.86
2023-05-09T10:46:53.850Z,57.60
2023-05-09T10:47:53.845Z,60.95
2023-05-09T10:48:53.808Z,64.98
2023-05-09T10:49:53.891Z,71.34
2023-05-09T10:50:53.961Z,65.74
2023-05-09T10:51:54.028Z,63.46
2023-05-09T10:52:54.057Z,66.45
2023-05-09T10:53:54.136Z,70.30
2023-05-09T10:54:54.452Z,61.49
2023-05-09T10:55:54.195Z,61.70
2023-05-09T10:56:54.278Z,63.70
2023-05-09T10:57:54.369Z,55.60
2023-05-09T10:58:54.395Z,63.18
2023-05-09T10:59:54.968Z,65.14
2023-05-09T11:00:55.368Z,63.88
2023-05-09T11:01:54.746Z,62.88
2023-05-09T11:02:54.963Z,65.11
2023-05-09T11:03:54.834Z,70.20
2023-05-09T11:04:54.947Z,67.41
2023-05-09T11:05:54.937Z,62.81
2023-05-09T11:06:57.159Z,62.30
2023-05-09T11:07:54.937Z,68.55
2023-05-09T11:08:54.950Z,71.88
2023-05-09T11:09:54.940Z,65.02
2023-05-09T11:10:55.504Z,69.07
2023-05-09T11:11:54.907Z,68.29
2023-05-09T11:12:56.822Z,61.03
2023-05-09T11:13:54.918Z,61.20
2023-05-09T11:14:54.986Z,61.21
2023-05-09T11:15:54.872Z,61.50
2023-05-09T11:16:54.862Z,62.44
2023-05-09T11:17:54.917Z,61.31
2023-05-09T11:18:54.943Z,59.51
2023-05-09T11:19:54.970Z,56.16
2023-05-09T11:20:54.846Z,58.19
2023-05-09T11:21:54.842Z,56.26
2023-05-09T11:22:54.831Z,49.32
2023-05-09T11:23:55.343Z,55.11
2023-05-09T11:24:54.845Z,49.95
2023-05-09T11:25:54.858Z,51.89
2023-05-09T11:26:54.797Z,47.80
2023-05-09T11:27:54.826Z,47.98
2023-05-09T11:28:54.769Z,50.22
2023-05-09T11:29:54.994Z,47.91
2023-05-09T11:30:54.965Z,47.05
2023-05-09T11:31:54.885Z,55.60
2023-05-09T11:32:54.792Z,50.78
2023-05-09T11:33:54.777Z,51.67
2023-05-09T11:34:54.916Z,57.39
2023-05-09T11:35:54.762Z,52.01
2023-05-09T11:36:55.705Z,56.73
2023-05-09T11:37:54.729Z,56.52
2023-05-09T11:38:54.737Z,56.73
2023-05-09T11:39:54.955Z,57.43
2023-05-09T11:40:54.691Z,52.34
2023-05-09T11:41:54.681Z,49.92
2023-05-09T11:42:57.751Z,50.14
2023-05-09T11:43:54.665Z,50.36
2023-05-09T11:44:54.984Z,49.92
2023-05-09T11:45:54.761Z,51.35
2023-05-09T11:46:54.697Z,49.73
2023-05-09T11:47:54.778Z,45.45
2023-05-09T11:48:54.641Z,56.08
2023-05-09T11:49:54.653Z,48.03
2023-05-09T11:50:54.750Z,51.62
2023-05-09T11:51:54.634Z,51.86
2023-05-09T11:52:54.629Z,51.95
2023-05-09T11:53:54.641Z,46.87
2023-05-09T11:54:54.993Z,52.76
2023-05-09T11:55:54.578Z,50.97
2023-05-09T11:56:54.579Z,47.21
2023-05-09T11:57:54.693Z,46.44
2023-05-09T11:58:54.610Z,51.29
2023-05-09T11:59:55.011Z,48.94
2023-05-09T12:00:54.577Z,47.20
2023-05-09T12:01:54.608Z,45.62
2023-05-09T12:02:54.600Z,52.50
2023-05-09T12:03:54.618Z,52.32
2023-05-09T12:04:54.941Z,51.36
2023-05-09T12:05:54.524Z,51.76
2023-05-09T12:06:54.601Z,53.85
2023-05-09T12:07:54.528Z,53.82
2023-05-09T12:08:54.529Z,52.59
2023-05-09T12:09:54.974Z,48.53
2023-05-09T12:10:54.498Z,51.45
2023-05-09T12:11:54.493Z,48.93
2023-05-09T12:12:54.476Z,49.72
2023-05-09T12:13:54.493Z,50.50
2023-05-09T12:14:54.465Z,55.67
2023-05-09T12:15:54.455Z,48.25
2023-05-09T12:16:54.426Z,53.43
2023-05-09T12:17:54.510Z,51.47
2023-05-09T12:18:54.434Z,50.22
2023-05-09T12:19:54.431Z,47.45
2023-05-09T12:20:54.444Z,57.70
2023-05-09T12:21:54.410Z,54.21
2023-05-09T12:22:54.487Z,53.54
2023-05-09T12:23:54.369Z,58.72
2023-05-09T12:24:54.426Z,45.50
2023-05-09T12:25:54.385Z,47.57
2023-05-09T12:26:54.373Z,56.57
2023-05-09T12:27:54.348Z,56.15
2023-05-09T12:28:54.361Z,58.08
2023-05-09T12:29:55.093Z,55.49
2023-05-09T12:30:54.365Z,55.67
2023-05-09T12:31:54.440Z,55.85
2023-05-09T12:32:54.384Z,55.15
2023-05-09T12:33:54.336Z,52.88
2023-05-09T12:34:54.487Z,59.89
2023-05-09T12:35:54.703Z,53.94
2023-05-09T12:36:54.319Z,61.28
2023-05-09T12:37:54.313Z,61.16
2023-05-09T12:38:54.379Z,58.80
2023-05-09T12:39:54.456Z,58.52
2023-05-09T12:40:54.279Z,55.59
2023-05-09T12:42:01.532Z,52.26
2023-05-09T12:42:55.250Z,52.78
2023-05-09T12:43:54.285Z,52.97
2023-05-09T12:44:54.243Z,51.48
2023-05-09T12:45:54.262Z,53.27
2023-05-09T12:46:54.401Z,60.68
2023-05-09T12:47:54.310Z,54.11
2023-05-09T12:48:54.232Z,53.47
2023-05-09T12:49:54.260Z,54.65
2023-05-09T12:50:54.251Z,59.00
2023-05-09T12:51:54.204Z,55.75
2023-05-09T12:53:02.930Z,56.22